Time;durP1;ratioP1;P1;durP2;ratioP2;P2;SDS_P1;SDS_P2;PMS_P1;PMS_P2;Temp;Humidity;BMP_temperature;BMP_pressure;BME280_temperature;BME280_humidity;BME280_pressure;Samples;Min_cycle;Max_cycle;Signal;HPM_P1;HPM_P2
2022/07/15 00:02:25;;;;;;;8.75;3.25;;;19.20;99.60;;;;;;5094702;28;20065;-71
2022/07/15 00:04:51;;;;;;;6.80;3.38;;;19.20;99.70;;;;;;5094331;28;20031;-71
2022/07/15 00:07:17;;;;;;;8.38;3.60;;;19.10;99.80;;;;;;5094870;28;20016;-71
2022/07/15 00:12:27;;;;;;;6.88;3.30;;;19.00;99.60;;;;;;5091646;28;20169;-70
2022/07/15 00:14:53;;;;;;;11.43;3.30;;;19.00;99.60;;;;;;5092860;28;20490;-71
2022/07/15 00:17:18;;;;;;;9.07;3.97;;;18.90;99.90;;;;;;5092562;28;20031;-70
2022/07/15 00:19:44;;;;;;;11.32;3.63;;;18.90;99.80;;;;;;5094255;28;20036;-71
2022/07/15 00:22:10;;;;;;;6.65;3.50;;;18.80;99.90;;;;;;5094405;28;20381;-70
2022/07/15 00:24:35;;;;;;;8.05;3.95;;;18.80;99.90;;;;;;5092794;28;20039;-71
2022/07/15 00:27:02;;;;;;;9.55;3.50;;;18.70;99.90;;;;;;5094292;28;20468;-70
2022/07/15 00:29:29;;;;;;;10.88;3.78;;;18.70;99.90;;;;;;5094137;28;20024;-71
2022/07/15 00:31:55;;;;;;;8.75;4.07;;;18.70;99.90;;;;;;5092475;28;20020;-71
2022/07/15 00:34:21;;;;;;;10.20;3.90;;;18.70;99.90;;;;;;5091526;28;20040;-71
2022/07/15 00:36:47;;;;;;;12.88;4.20;;;18.70;99.90;;;;;;5078371;28;20024;-71
2022/07/15 00:39:13;;;;;;;12.80;4.13;;;18.60;99.90;;;;;;5072946;28;20028;-71
2022/07/15 00:41:41;;;;;;;10.40;3.78;;;18.60;99.90;;;;;;5073907;28;20036;-70
2022/07/15 00:44:07;;;;;;;8.55;4.07;;;18.50;99.90;;;;;;5086986;28;20020;-71
2022/07/15 00:46:34;;;;;;;8.27;4.00;;;18.50;99.90;;;;;;5094080;28;20055;-71
2022/07/15 00:49:03;;;;;;;12.20;4.68;;;18.50;99.90;;;;;;5072505;28;20028;-72
2022/07/15 00:51:36;;;;;;;10.45;4.03;;;18.40;99.90;;;;;;5074543;28;20176;-71
2022/07/15 00:54:04;;;;;;;10.85;4.22;;;18.40;99.90;;;;;;5094087;28;20052;-71
2022/07/15 00:56:35;;;;;;;8.70;3.85;;;18.30;99.90;;;;;;5093998;28;20369;-71
2022/07/15 00:59:02;;;;;;;7.82;3.55;;;18.30;99.90;;;;;;5093518;28;20035;-71
2022/07/15 01:01:28;;;;;;;11.23;3.72;;;18.30;99.90;;;;;;5093476;28;20488;-70
2022/07/15 01:03:54;;;;;;;8.82;4.25;;;18.20;99.90;;;;;;5081828;28;20028;-70
2022/07/15 01:06:20;;;;;;;7.53;3.50;;;18.20;99.90;;;;;;5073377;28;20469;-71
2022/07/15 01:08:45;;;;;;;13.23;3.92;;;18.20;99.90;;;;;;5089517;28;20035;-71
2022/07/15 01:11:11;;;;;;;12.40;4.25;;;18.20;99.90;;;;;;5093181;28;20555;-71
2022/07/15 01:13:37;;;;;;;11.50;4.05;;;18.10;99.90;;;;;;5092205;28;20024;-69
2022/07/15 01:16:04;;;;;;;12.77;4.63;;;18.10;99.90;;;;;;5093242;28;20101;-71
2022/07/15 01:18:29;;;;;;;8.15;4.28;;;18.00;99.90;;;;;;5092962;28;20036;-70
2022/07/15 01:20:55;;;;;;;11.18;4.65;;;18.00;99.90;;;;;;5087851;28;20089;-70
2022/07/15 01:23:21;;;;;;;6.80;4.30;;;18.00;99.90;;;;;;5089725;28;20086;-71
2022/07/15 01:25:46;;;;;;;9.40;4.22;;;17.90;99.90;;;;;;5092928;28;20038;-70
2022/07/15 01:28:12;;;;;;;10.63;4.30;;;17.90;99.90;;;;;;5093176;28;20024;-70
2022/07/15 01:30:38;;;;;;;12.70;4.43;;;17.90;99.90;;;;;;5093429;28;20020;-71
2022/07/15 01:33:04;;;;;;;8.25;3.92;;;17.80;99.90;;;;;;5093426;28;20484;-70
2022/07/15 01:35:30;;;;;;;12.75;4.57;;;17.80;99.90;;;;;;5093115;28;20020;-70
2022/07/15 01:37:56;;;;;;;9.10;4.47;;;17.80;99.90;;;;;;5093061;28;20028;-69
2022/07/15 01:40:21;;;;;;;8.85;3.80;;;17.80;99.90;;;;;;5091740;28;20032;-71
2022/07/15 01:42:47;;;;;;;11.40;4.60;;;17.70;99.90;;;;;;5092024;28;20795;-70
2022/07/15 01:45:13;;;;;;;8.57;4.00;;;17.70;99.90;;;;;;5091645;28;20027;-71
2022/07/15 01:47:48;;;;;;;12.05;4.60;;;17.70;99.90;;;;;;5092458;28;20036;-70
2022/07/15 01:50:14;;;;;;;8.93;4.25;;;17.60;99.90;;;;;;5092685;28;20142;-70
2022/07/15 01:52:39;;;;;;;9.35;4.10;;;17.60;99.90;;;;;;5092732;28;20031;-71
2022/07/15 01:55:07;;;;;;;9.27;4.65;;;17.60;99.90;;;;;;5092022;28;20127;-72
2022/07/15 01:57:33;;;;;;;10.02;3.80;;;17.60;99.90;;;;;;5092410;28;20174;-72
2022/07/15 01:59:59;;;;;;;10.43;5.10;;;17.50;99.90;;;;;;5092935;28;20548;-72
2022/07/15 02:02:25;;;;;;;13.57;5.00;;;17.50;99.90;;;;;;5092752;28;20028;-72
2022/07/15 02:04:50;;;;;;;17.92;5.00;;;17.50;99.90;;;;;;5092872;28;20020;-72
2022/07/15 02:07:16;;;;;;;9.98;4.78;;;17.40;99.90;;;;;;5092624;28;20146;-71
2022/07/15 02:09:42;;;;;;;9.00;4.68;;;17.40;99.90;;;;;;5091761;28;20090;-72
2022/07/15 02:12:07;;;;;;;9.82;4.85;;;17.40;99.90;;;;;;5092324;28;20027;-71
2022/07/15 02:14:36;;;;;;;9.23;4.70;;;17.30;99.90;;;;;;5091146;28;20150;-72
2022/07/15 02:17:03;;;;;;;8.88;4.47;;;17.30;99.90;;;;;;5092220;28;20039;-70
2022/07/15 02:19:29;;;;;;;8.88;4.70;;;17.30;99.90;;;;;;5092389;28;20059;-71
2022/07/15 02:21:55;;;;;;;12.77;5.00;;;17.30;99.90;;;;;;5091371;28;20473;-71
2022/07/15 02:24:20;;;;;;;10.95;5.70;;;17.20;99.90;;;;;;5091025;28;20097;-69
2022/07/15 02:26:48;;;;;;;8.30;4.82;;;17.20;99.90;;;;;;5091693;28;20051;-71
2022/07/15 02:29:15;;;;;;;10.50;4.53;;;17.20;99.90;;;;;;5091921;28;20039;-71
2022/07/15 02:31:41;;;;;;;7.97;4.82;;;17.10;99.90;;;;;;5092233;28;20107;-71
2022/07/15 02:34:08;;;;;;;11.57;5.13;;;17.10;99.90;;;;;;5092275;28;20034;-71
2022/07/15 02:36:35;;;;;;;10.68;5.55;;;17.00;99.90;;;;;;5091184;28;20461;-72
2022/07/15 02:39:02;;;;;;;12.80;5.55;;;17.00;99.90;;;;;;5092161;28;20028;-72
2022/07/15 02:41:29;;;;;;;11.18;4.63;;;16.90;99.90;;;;;;5092197;28;20027;-72
2022/07/15 02:43:55;;;;;;;11.00;5.10;;;16.90;99.90;;;;;;5092249;28;20116;-72
2022/07/15 02:46:21;;;;;;;9.48;5.03;;;16.80;99.90;;;;;;5092524;28;20058;-72
2022/07/15 02:48:47;;;;;;;11.15;5.10;;;16.80;99.90;;;;;;5092160;28;20052;-71
2022/07/15 02:51:13;;;;;;;8.05;4.85;;;16.80;99.90;;;;;;5092486;28;20073;-71
2022/07/15 02:53:39;;;;;;;8.30;4.55;;;16.80;99.90;;;;;;5085790;28;20179;-71
2022/07/15 02:56:05;;;;;;;12.80;5.35;;;16.80;99.90;;;;;;5093542;28;20422;-71
2022/07/15 02:58:31;;;;;;;14.20;5.35;;;16.80;99.90;;;;;;5096233;28;20092;-70
2022/07/15 03:00:59;;;;;;;11.15;5.53;;;16.80;99.90;;;;;;5096439;28;20028;-71
2022/07/15 03:03:27;;;;;;;8.73;4.53;;;16.70;99.90;;;;;;5096033;28;20428;-71
2022/07/15 03:05:57;;;;;;;11.65;5.45;;;16.70;99.90;;;;;;5096060;28;20031;-71
2022/07/15 03:08:23;;;;;;;10.35;5.07;;;16.60;99.90;;;;;;5094293;28;20027;-70
2022/07/15 03:10:49;;;;;;;12.35;5.13;;;16.60;99.90;;;;;;5094248;28;20058;-71
2022/07/15 03:13:14;;;;;;;8.18;5.32;;;16.60;99.90;;;;;;5095044;28;20476;-71
2022/07/15 03:15:40;;;;;;;10.07;5.05;;;16.60;99.90;;;;;;5076821;28;20481;-71
2022/07/15 03:18:06;;;;;;;7.45;4.80;;;16.60;99.90;;;;;;5075369;28;20095;-72
2022/07/15 03:20:31;;;;;;;12.60;4.57;;;16.60;99.90;;;;;;5087001;28;20028;-71
2022/07/15 03:22:57;;;;;;;8.85;4.90;;;16.50;99.90;;;;;;5095630;28;20017;-71
2022/07/15 03:25:23;;;;;;;7.50;4.47;;;16.50;99.90;;;;;;5110094;28;20190;-72
2022/07/15 03:27:49;;;;;;;8.77;5.03;;;16.40;99.90;;;;;;5094757;28;20032;-71
2022/07/15 03:30:14;;;;;;;8.07;4.88;;;16.40;99.90;;;;;;5095243;28;20024;-71
2022/07/15 03:32:40;;;;;;;10.25;5.78;;;16.40;99.90;;;;;;5095643;28;20124;-71
2022/07/15 03:35:06;;;;;;;11.63;5.53;;;16.40;99.90;;;;;;5095419;28;20020;-71
2022/07/15 03:37:32;;;;;;;11.18;5.30;;;16.40;99.90;;;;;;5094792;28;20051;-70
2022/07/15 03:39:58;;;;;;;8.00;5.20;;;16.40;99.90;;;;;;5094694;28;20484;-71
2022/07/15 03:42:23;;;;;;;13.70;4.97;;;16.40;99.90;;;;;;5094928;28;20069;-71
2022/07/15 03:44:50;;;;;;;9.88;4.72;;;16.30;99.90;;;;;;5094585;28;20472;-71
2022/07/15 03:47:15;;;;;;;13.27;5.40;;;16.30;99.90;;;;;;5094850;28;20023;-71
2022/07/15 03:49:41;;;;;;;12.63;5.25;;;16.30;99.90;;;;;;5094991;28;20031;-70
2022/07/15 03:52:07;;;;;;;11.93;5.90;;;16.30;99.90;;;;;;5094831;28;20368;-71
2022/07/15 03:54:33;;;;;;;8.30;5.57;;;16.30;99.90;;;;;;5095000;28;20032;-71
2022/07/15 03:56:59;;;;;;;12.20;5.25;;;16.30;99.90;;;;;;5094769;28;20074;-71
2022/07/15 03:59:25;;;;;;;9.32;5.07;;;16.30;99.90;;;;;;5094932;28;20032;-71
2022/07/15 04:01:52;;;;;;;7.88;4.47;;;16.30;99.90;;;;;;5094983;28;20350;-71
2022/07/15 04:04:17;;;;;;;8.55;4.80;;;16.30;99.90;;;;;;5107613;28;20425;-71
2022/07/15 04:06:43;;;;;;;12.48;5.50;;;16.30;99.90;;;;;;5114334;28;20016;-71
2022/07/15 04:09:10;;;;;;;10.88;4.97;;;16.30;99.90;;;;;;5114506;28;20076;-71
2022/07/15 04:11:36;;;;;;;10.82;5.45;;;16.30;99.90;;;;;;5095116;28;20029;-71
2022/07/15 04:14:01;;;;;;;9.15;5.50;;;16.30;99.90;;;;;;5093560;28;20445;-71
2022/07/15 04:16:28;;;;;;;10.65;5.78;;;16.30;99.90;;;;;;5093399;28;20501;-70
2022/07/15 04:18:54;;;;;;;10.70;5.50;;;16.30;99.90;;;;;;5093994;28;20077;-71
2022/07/15 04:21:20;;;;;;;11.35;5.13;;;16.20;99.90;;;;;;5094310;28;20023;-71
2022/07/15 04:23:45;;;;;;;11.00;5.55;;;16.30;99.90;;;;;;5094112;28;20031;-71
2022/07/15 04:26:11;;;;;;;9.55;5.40;;;16.30;99.90;;;;;;5094195;28;20016;-70
2022/07/15 04:28:37;;;;;;;11.05;5.30;;;16.30;99.90;;;;;;5094196;28;20111;-71
2022/07/15 04:31:02;;;;;;;10.98;5.90;;;16.30;99.90;;;;;;5094118;28;20075;-71
2022/07/15 04:33:28;;;;;;;10.20;4.70;;;16.30;99.90;;;;;;5093995;28;20032;-71
2022/07/15 04:35:54;;;;;;;10.50;5.40;;;16.30;99.90;;;;;;5093761;28;20502;-71
2022/07/15 04:38:20;;;;;;;12.00;5.47;;;16.40;99.90;;;;;;5094131;28;20069;-70
2022/07/15 04:40:46;;;;;;;15.20;5.18;;;16.40;99.90;;;;;;5093719;28;20040;-71
2022/07/15 04:43:12;;;;;;;15.45;5.50;;;16.40;99.90;;;;;;5094247;28;20020;-70
2022/07/15 04:45:38;;;;;;;13.15;6.55;;;16.40;99.90;;;;;;5093184;28;20028;-71
2022/07/15 04:50:45;;;;;;;14.60;6.35;;;16.40;99.90;;;;;;5093859;28;20016;-71
2022/07/15 04:50:51;;;;;;;13.82;6.10;;;16.40;99.90;;;;;;5093836;28;20036;-71
2022/07/15 04:53:18;;;;;;;12.18;6.05;;;16.50;99.90;;;;;;5094438;28;20016;-70
2022/07/15 04:55:44;;;;;;;14.75;6.97;;;16.50;99.90;;;;;;5093983;28;20088;-70
2022/07/15 04:58:09;;;;;;;13.70;7.32;;;16.50;99.90;;;;;;5093995;28;20051;-70
2022/07/15 05:00:35;;;;;;;11.57;6.60;;;16.50;99.90;;;;;;5094029;28;20032;-72
2022/07/15 05:03:04;;;;;;;14.20;6.43;;;16.50;99.90;;;;;;5094125;28;20529;-71
2022/07/15 05:05:30;;;;;;;14.07;6.90;;;16.50;99.90;;;;;;5091225;28;20078;-69
2022/07/15 05:07:55;;;;;;;15.57;7.35;;;16.60;99.90;;;;;;5075040;28;20044;-70
2022/07/15 05:10:21;;;;;;;11.88;6.38;;;16.60;99.90;;;;;;5077442;28;20024;-71
2022/07/15 05:12:47;;;;;;;9.68;5.22;;;16.50;99.90;;;;;;5092483;28;20111;-71
2022/07/15 05:15:14;;;;;;;13.57;6.93;;;16.60;99.90;;;;;;5090567;28;20103;-71
2022/07/15 05:17:40;;;;;;;13.68;6.60;;;16.60;99.90;;;;;;5073445;28;20112;-71
2022/07/15 05:20:06;;;;;;;12.80;6.97;;;16.60;99.90;;;;;;5075324;28;20040;-71
2022/07/15 05:22:32;;;;;;;11.85;7.30;;;16.60;99.90;;;;;;5080507;28;20473;-71
2022/07/15 05:24:57;;;;;;;11.85;6.93;;;16.60;99.90;;;;;;5074877;28;20043;-70
2022/07/15 05:27:23;;;;;;;13.82;7.45;;;16.50;99.90;;;;;;5092487;28;20476;-71
2022/07/15 05:29:49;;;;;;;12.25;5.95;;;16.50;99.90;;;;;;5093500;28;20031;-71
2022/07/15 05:32:14;;;;;;;10.07;5.80;;;16.50;99.90;;;;;;5092655;28;20024;-72
2022/07/15 05:34:40;;;;;;;13.25;6.40;;;16.60;99.90;;;;;;5078262;28;20066;-71
2022/07/15 05:37:06;;;;;;;12.85;6.22;;;16.60;99.90;;;;;;5093107;28;20021;-71
2022/07/15 05:39:31;;;;;;;14.80;7.10;;;16.50;99.90;;;;;;5091921;28;20044;-71
2022/07/15 05:41:58;;;;;;;18.88;7.97;;;16.50;99.90;;;;;;5092098;28;20464;-71
2022/07/15 05:44:24;;;;;;;11.27;6.78;;;16.50;99.90;;;;;;5093081;28;20362;-71
2022/07/15 05:46:50;;;;;;;16.48;7.57;;;16.50;99.90;;;;;;5092426;28;20138;-72
2022/07/15 05:49:16;;;;;;;14.43;7.43;;;16.60;99.90;;;;;;5090461;28;20032;-71
2022/07/15 05:51:42;;;;;;;14.57;8.30;;;16.50;99.90;;;;;;5092838;28;20021;-71
2022/07/15 05:54:08;;;;;;;16.55;6.60;;;16.50;99.90;;;;;;5112209;28;20028;-71
2022/07/15 05:56:33;;;;;;;15.75;7.38;;;16.50;99.90;;;;;;5087394;28;20071;-71
2022/07/15 05:59:00;;;;;;;12.30;6.78;;;16.50;99.90;;;;;;5092613;28;20044;-72
2022/07/15 06:01:25;;;;;;;14.55;7.20;;;16.50;99.90;;;;;;5092562;28;20024;-72
2022/07/15 06:03:51;;;;;;;14.73;6.82;;;16.60;99.90;;;;;;5091524;28;20031;-71
2022/07/15 06:06:17;;;;;;;13.85;6.90;;;16.60;99.90;;;;;;5092343;28;20103;-72
2022/07/15 06:08:43;;;;;;;12.98;6.65;;;16.60;99.90;;;;;;5092516;28;20027;-71
2022/07/15 06:11:11;;;;;;;10.52;6.68;;;16.70;99.90;;;;;;5091159;28;20106;-71
2022/07/15 06:13:38;;;;;;;11.70;5.82;;;16.70;99.90;;;;;;5091906;28;20028;-72
2022/07/15 06:16:04;;;;;;;15.40;6.63;;;16.60;99.90;;;;;;5098927;28;20044;-72
2022/07/15 06:18:30;;;;;;;12.77;6.50;;;16.70;99.90;;;;;;5111739;28;20027;-72
2022/07/15 06:20:55;;;;;;;11.85;6.43;;;16.70;99.90;;;;;;5111550;28;20380;-70
2022/07/15 06:23:21;;;;;;;12.73;6.00;;;16.70;99.90;;;;;;5112720;28;20073;-71
2022/07/15 06:25:47;;;;;;;11.48;5.35;;;16.70;99.90;;;;;;5103559;28;20035;-71
2022/07/15 06:28:13;;;;;;;8.93;5.47;;;16.70;99.90;;;;;;5092672;28;20028;-72
2022/07/15 06:30:39;;;;;;;11.27;4.55;;;16.70;99.90;;;;;;5093470;28;20349;-71
2022/07/15 06:33:05;;;;;;;11.85;5.03;;;16.80;99.90;;;;;;5096509;28;20035;-71
2022/07/15 06:35:30;;;;;;;12.30;5.18;;;16.90;99.90;;;;;;5096114;28;20024;-71
2022/07/15 06:37:56;;;;;;;8.27;4.75;;;16.90;99.90;;;;;;5096620;28;20101;-70
2022/07/15 06:40:22;;;;;;;9.05;3.60;;;17.00;99.90;;;;;;5095920;28;20049;-71
2022/07/15 06:42:48;;;;;;;10.15;3.78;;;17.00;99.90;;;;;;5096452;28;20473;-71
2022/07/15 06:45:13;;;;;;;7.55;3.45;;;17.00;99.90;;;;;;5096242;28;20052;-71
2022/07/15 06:47:41;;;;;;;9.13;3.53;;;17.10;99.90;;;;;;5095845;28;20499;-71
2022/07/15 06:50:07;;;;;;;10.13;2.53;;;17.20;99.90;;;;;;5106202;28;20020;-72
2022/07/15 06:52:32;;;;;;;9.00;2.28;;;17.20;99.90;;;;;;5116329;28;20099;-72
2022/07/15 06:54:58;;;;;;;4.55;2.00;;;17.40;99.90;;;;;;5115529;27;20481;-71
2022/07/15 06:57:24;;;;;;;8.75;2.20;;;17.50;99.90;;;;;;5116832;28;20032;-71
2022/07/15 06:59:49;;;;;;;6.18;1.80;;;17.60;99.90;;;;;;5116715;27;20035;-70
2022/07/15 07:02:15;;;;;;;9.95;2.20;;;17.80;99.90;;;;;;5116057;28;20024;-71
2022/07/15 07:04:45;;;;;;;6.32;1.35;;;17.90;99.90;;;;;;5095091;28;20056;-71
2022/07/15 07:07:10;;;;;;;9.45;1.88;;;18.00;99.90;;;;;;5096087;28;20033;-72
2022/07/15 07:09:36;;;;;;;4.28;1.30;;;18.10;99.90;;;;;;5097096;28;20563;-72
2022/07/15 07:12:02;;;;;;;6.53;1.52;;;18.20;99.90;;;;;;5093787;28;20487;-72
2022/07/15 07:14:27;;;;;;;6.57;1.42;;;18.30;99.90;;;;;;5095635;28;20024;-72
2022/07/15 07:16:53;;;;;;;3.67;0.82;;;18.40;99.90;;;;;;5095372;28;20153;-72
2022/07/15 07:19:19;;;;;;;3.67;1.25;;;18.60;99.90;;;;;;5095334;28;20196;-72
2022/07/15 07:21:45;;;;;;;6.00;1.50;;;18.70;99.90;;;;;;5095588;28;20028;-72
2022/07/15 07:24:10;;;;;;;4.35;1.48;;;18.70;99.90;;;;;;5095466;28;20494;-72
2022/07/15 07:26:37;;;;;;;3.00;1.10;;;18.90;99.90;;;;;;5095843;28;20488;-71
2022/07/15 07:29:03;;;;;;;4.47;1.10;;;19.00;99.90;;;;;;5095629;28;20031;-72
2022/07/15 07:31:29;;;;;;;3.55;1.02;;;19.00;99.90;;;;;;5095619;28;20187;-72
2022/07/15 07:33:56;;;;;;;4.50;1.13;;;19.10;99.90;;;;;;5094946;28;20028;-72
2022/07/15 07:36:23;;;;;;;1.65;0.90;;;19.20;99.90;;;;;;5093254;28;20047;-72
2022/07/15 07:38:49;;;;;;;7.43;1.40;;;19.40;99.90;;;;;;5095328;28;20032;-72
2022/07/15 07:41:14;;;;;;;4.90;1.20;;;19.40;99.90;;;;;;5094155;28;20069;-72
2022/07/15 07:43:40;;;;;;;4.43;0.90;;;19.50;99.90;;;;;;5094293;28;20028;-73
2022/07/15 07:46:06;;;;;;;4.65;1.00;;;19.60;99.90;;;;;;5074353;28;20496;-73
2022/07/15 07:48:32;;;;;;;2.83;0.90;;;19.70;99.90;;;;;;5073568;28;20120;-72
2022/07/15 07:50:58;;;;;;;5.72;1.13;;;19.80;99.90;;;;;;5077402;28;20027;-72
2022/07/15 07:53:24;;;;;;;5.30;1.20;;;19.90;99.90;;;;;;5094776;28;20488;-73
2022/07/15 07:55:50;;;;;;;3.45;1.00;;;20.00;99.90;;;;;;5092874;28;20059;-73
2022/07/15 07:58:17;;;;;;;1.95;0.93;;;20.10;99.90;;;;;;5093448;28;20075;-72
2022/07/15 08:00:44;;;;;;;6.50;1.02;;;20.20;99.90;;;;;;5093600;28;20052;-72
2022/07/15 08:03:10;;;;;;;3.95;1.30;;;20.20;99.90;;;;;;5095235;28;20031;-72
2022/07/15 08:05:36;;;;;;;2.60;0.93;;;20.30;99.90;;;;;;5092811;28;20036;-72
2022/07/15 08:08:15;;;;;;;3.95;1.23;;;20.50;99.90;;;;;;5094867;28;20027;-73
2022/07/15 08:10:43;;;;;;;5.47;1.38;;;20.60;99.90;;;;;;5081408;28;20032;-73
2022/07/15 08:13:09;;;;;;;3.95;0.85;;;20.70;99.80;;;;;;5094625;28;20464;-73
2022/07/15 08:15:35;;;;;;;4.82;0.90;;;20.80;99.80;;;;;;5093977;28;20032;-73
2022/07/15 08:18:01;;;;;;;3.63;0.98;;;21.20;98.40;;;;;;5083273;28;20478;-73
2022/07/15 08:20:28;;;;;;;5.15;0.98;;;21.40;98.70;;;;;;5073459;28;20036;-73
2022/07/15 08:22:58;;;;;;;3.15;0.80;;;21.50;98.90;;;;;;5074075;28;20091;-73
2022/07/15 08:25:28;;;;;;;4.75;1.02;;;21.70;98.70;;;;;;5079299;28;20473;-73
2022/07/15 08:27:55;;;;;;;3.90;0.75;;;21.80;97.50;;;;;;5094165;28;20020;-72
2022/07/15 08:30:21;;;;;;;4.13;0.95;;;21.90;97.60;;;;;;5093210;28;20483;-73
2022/07/15 08:32:46;;;;;;;4.38;1.00;;;21.60;96.50;;;;;;5093802;28;20024;-73
2022/07/15 08:35:12;;;;;;;3.72;0.80;;;21.60;97.00;;;;;;5093759;28;20020;-74
2022/07/15 08:37:38;;;;;;;3.05;0.90;;;21.60;97.40;;;;;;5087984;28;20477;-73
2022/07/15 08:40:06;;;;;;;2.83;0.90;;;21.90;97.70;;;;;;5082539;28;20508;-72
2022/07/15 08:42:31;;;;;;;4.13;0.98;;;22.10;97.40;;;;;;5092969;28;20535;-73
2022/07/15 08:44:57;;;;;;;2.90;0.95;;;22.30;95.80;;;;;;5093573;28;20194;-73
2022/07/15 08:47:24;;;;;;;4.05;0.98;;;22.40;96.70;;;;;;5093965;28;20381;-72
2022/07/15 08:49:56;;;;;;;3.50;0.63;;;22.20;95.50;;;;;;5093504;28;20032;-72
2022/07/15 08:52:24;;;;;;;4.43;0.65;;;21.90;96.20;;;;;;5094029;28;20107;-73
2022/07/15 08:54:50;;;;;;;2.25;0.82;;;21.80;96.80;;;;;;5093460;28;20035;-73
2022/07/15 08:57:15;;;;;;;1.92;0.77;;;22.00;95.90;;;;;;5093387;28;20024;-72
2022/07/15 08:59:42;;;;;;;3.60;0.85;;;22.10;94.90;;;;;;5092819;28;20032;-71
2022/07/15 09:02:10;;;;;;;3.75;0.82;;;22.00;95.40;;;;;;5093653;28;20028;-73
2022/07/15 09:05:15;;;;;;;4.80;0.75;;;21.90;95.90;;;;;;5093083;28;20095;-73
2022/07/15 09:07:59;;;;;;;2.10;0.77;;;22.00;95.20;;;;;;5073605;28;20033;-71
2022/07/15 09:10:46;;;;;;;4.78;1.20;;;22.20;94.90;;;;;;5082877;28;20028;-73
2022/07/15 09:13:32;;;;;;;3.90;0.98;;;22.40;95.40;;;;;;5074646;28;20032;-72
2022/07/15 09:16:04;;;;;;;3.30;0.98;;;22.70;94.60;;;;;;5093108;28;20082;-72
2022/07/15 09:18:41;;;;;;;5.05;0.93;;;22.40;94.10;;;;;;5093000;28;20385;-72
2022/07/15 09:21:24;;;;;;;3.55;0.80;;;22.30;94.80;;;;;;5091970;28;20033;-71
2022/07/15 09:23:50;;;;;;;3.67;1.00;;;22.40;94.90;;;;;;5093505;28;20059;-72
2022/07/15 09:26:29;;;;;;;2.83;0.77;;;22.20;94.70;;;;;;5092744;28;20025;-72
2022/07/15 09:28:55;;;;;;;1.98;0.93;;;22.40;94.90;;;;;;5091826;28;20032;-72
2022/07/15 09:34:21;;;;;;;3.35;1.00;;;22.80;94.80;;;;;;5071959;28;20090;-71
2022/07/15 09:36:54;;;;;;;2.83;0.75;;;23.00;93.90;;;;;;5102556;28;20027;-72
2022/07/15 09:39:21;;;;;;;4.13;1.30;;;23.30;94.10;;;;;;5094908;28;20065;-72
2022/07/15 09:41:48;;;;;;;3.60;1.13;;;23.50;93.30;;;;;;5105061;28;20020;-72
2022/07/15 09:44:23;;;;;;;4.20;1.42;;;23.50;93.60;;;;;;5100573;28;20400;-72
2022/07/15 09:46:59;;;;;;;3.45;0.70;;;23.70;93.00;;;;;;5108097;28;20031;-72
2022/07/15 09:49:24;;;;;;;3.33;0.90;;;23.90;92.00;;;;;;5079747;28;20043;-72
2022/07/15 09:51:53;;;;;;;3.35;0.85;;;24.10;93.00;;;;;;5104050;28;20449;-72
2022/07/15 09:54:19;;;;;;;3.35;0.88;;;24.20;92.20;;;;;;5103434;28;20031;-72
2022/07/15 09:56:47;;;;;;;2.53;0.90;;;24.20;90.60;;;;;;5095526;28;20028;-72
2022/07/15 09:59:13;;;;;;;5.15;1.10;;;24.40;91.80;;;;;;5101341;28;20156;-71
2022/07/15 10:01:40;;;;;;;1.90;0.77;;;24.40;90.40;;;;;;5087071;28;20449;-72
2022/07/15 10:04:06;;;;;;;3.53;0.90;;;24.50;90.00;;;;;;5102109;28;20107;-73
2022/07/15 10:06:35;;;;;;;3.28;1.00;;;24.50;89.20;;;;;;5094131;28;20115;-73
2022/07/15 10:09:03;;;;;;;3.15;0.60;;;24.70;91.00;;;;;;5109010;28;20024;-73
2022/07/15 10:11:31;;;;;;;4.28;1.05;;;24.80;89.80;;;;;;5095796;28;20035;-73
2022/07/15 10:14:41;;;;;;;5.88;0.90;;;24.80;90.90;;;;;;5103912;28;20469;-72
2022/07/15 10:17:25;;;;;;;3.85;0.88;;;24.90;91.10;;;;;;5048815;28;20025;-71
2022/07/15 10:20:21;;;;;;;1.23;0.80;;;25.20;90.30;;;;;;5099734;28;20117;-72
2022/07/15 10:23:24;;;;;;;8.18;0.80;;;25.30;87.30;;;;;;5094459;28;20028;-73
2022/07/15 10:26:24;;;;;;;2.13;0.60;;;25.30;87.10;;;;;;5094247;28;20048;-71
2022/07/15 10:28:56;;;;;;;4.25;0.80;;;25.20;87.40;;;;;;5096047;28;20504;-72
2022/07/15 10:31:30;;;;;;;3.30;0.75;;;25.30;89.50;;;;;;5079395;28;20094;-72
2022/07/15 10:34:07;;;;;;;5.60;0.75;;;24.80;86.50;;;;;;5096050;28;20048;-72
2022/07/15 10:36:46;;;;;;;2.67;0.70;;;25.00;88.10;;;;;;5104293;28;20026;-72
2022/07/15 10:39:12;;;;;;;2.75;0.80;;;24.80;88.50;;;;;;5092298;28;20036;-72
2022/07/15 10:41:58;;;;;;;2.03;0.77;;;25.00;88.20;;;;;;5105068;28;20141;-72
2022/07/15 10:44:27;;;;;;;3.95;0.88;;;25.30;90.80;;;;;;5094940;28;20119;-73
2022/07/15 10:47:26;;;;;;;2.40;0.70;;;25.50;87.00;;;;;;5095295;28;20043;-72
2022/07/15 10:49:51;;;;;;;1.77;0.75;;;25.40;86.40;;;;;;5056202;28;20051;-72
2022/07/15 10:52:22;;;;;;;3.92;0.75;;;25.70;88.70;;;;;;5103251;28;20027;-72
2022/07/15 10:55:07;;;;;;;2.80;0.82;;;25.90;88.30;;;;;;5094011;28;20552;-72
2022/07/15 10:57:40;;;;;;;2.38;0.90;;;26.00;85.40;;;;;;5082061;28;20532;-73
2022/07/15 11:00:24;;;;;;;4.35;0.90;;;25.70;85.00;;;;;;5098740;28;20102;-72
2022/07/15 11:03:26;;;;;;;3.30;0.90;;;25.80;88.20;;;;;;5086045;28;20081;-72
2022/07/15 11:05:51;;;;;;;4.70;0.85;;;25.70;88.10;;;;;;5096001;28;20067;-72
2022/07/15 11:08:36;;;;;;;2.90;0.73;;;26.10;84.60;;;;;;5098640;28;20054;-73
2022/07/15 11:11:14;;;;;;;2.95;0.63;;;26.30;84.20;;;;;;5099238;28;20050;-72
2022/07/15 11:13:45;;;;;;;5.47;0.70;;;26.30;85.80;;;;;;5097325;28;20035;-74
2022/07/15 11:16:17;;;;;;;3.00;0.70;;;26.40;85.80;;;;;;5099709;28;20544;-72
2022/07/15 11:18:50;;;;;;;6.90;0.82;;;26.70;86.50;;;;;;5095654;28;20024;-73
2022/07/15 11:21:17;;;;;;;3.97;0.88;;;26.80;84.20;;;;;;5111683;28;20058;-72
2022/07/15 11:23:47;;;;;;;5.95;1.05;;;26.80;83.60;;;;;;5093628;28;20024;-73
2022/07/15 11:26:14;;;;;;;3.20;0.77;;;26.50;82.80;;;;;;5090707;28;20032;-73
2022/07/15 11:28:50;;;;;;;1.67;0.60;;;26.60;82.70;;;;;;5108340;28;20304;-73
2022/07/15 11:31:15;;;;;;;4.68;0.98;;;26.60;82.60;;;;;;5085309;28;20027;-73
2022/07/15 11:33:41;;;;;;;5.65;1.23;;;26.60;83.40;;;;;;5105461;27;20023;-72
2022/07/15 11:36:17;;;;;;;3.15;0.88;;;26.70;82.90;;;;;;5096719;28;20399;-73
2022/07/15 11:38:43;;;;;;;5.85;1.10;;;26.30;84.00;;;;;;5107857;28;20130;-73
2022/07/15 11:46:49;;;;;;;2.85;0.77;;;27.00;83.00;;;;;;5082572;28;20107;-74
2022/07/15 11:49:38;;;;;;;2.65;0.90;;;27.10;80.50;;;;;;5094253;28;20809;-73
2022/07/15 11:52:05;;;;;;;4.60;1.13;;;27.00;84.10;;;;;;5088824;28;20058;-74
2022/07/15 11:54:31;;;;;;;4.72;0.85;;;27.20;84.20;;;;;;5086404;28;20056;-74
2022/07/15 11:57:04;;;;;;;2.25;0.93;;;27.20;81.10;;;;;;5083599;28;20038;-71
2022/07/15 11:59:32;;;;;;;1.75;0.70;;;27.30;81.60;;;;;;5081529;28;20044;-74
2022/07/15 12:02:02;;;;;;;4.35;0.90;;;27.30;82.10;;;;;;5088818;28;20077;-74
2022/07/15 12:04:28;;;;;;;2.55;0.90;;;27.30;82.90;;;;;;5088788;28;20027;-74
2022/07/15 12:06:54;;;;;;;2.25;0.80;;;27.30;78.80;;;;;;5083241;28;20021;-73
2022/07/15 12:09:20;;;;;;;2.88;0.63;;;27.20;82.40;;;;;;5087131;28;20032;-73
2022/07/15 12:11:46;;;;;;;3.22;0.90;;;27.40;84.10;;;;;;5081850;28;20072;-73
2022/07/15 12:14:21;;;;;;;3.83;0.77;;;27.30;79.80;;;;;;5089847;28;20101;-73
2022/07/15 12:16:53;;;;;;;3.55;0.60;;;27.10;80.80;;;;;;5083477;28;20389;-73
2022/07/15 12:19:22;;;;;;;;;;;26.70;80.30;;;;;;5089348;28;20099;-74
2022/07/15 12:21:50;;;;;;;0.95;0.60;;;26.60;81.90;;;;;;5091673;28;19908;-73
2022/07/15 12:24:18;;;;;;;6.32;0.93;;;27.00;85.10;;;;;;5090493;28;20033;-71
2022/07/15 12:26:50;;;;;;;4.95;1.00;;;27.40;81.30;;;;;;5097766;28;20465;-72
2022/07/15 12:29:18;;;;;;;2.92;0.70;;;27.60;82.70;;;;;;5090433;28;20069;-73
2022/07/15 12:31:52;;;;;;;3.67;1.10;;;27.20;81.20;;;;;;5089410;28;20098;-73
2022/07/15 12:34:18;;;;;;;2.58;0.70;;;26.80;82.50;;;;;;5085552;28;20074;-74
2022/07/15 12:36:44;;;;;;;3.38;0.90;;;26.40;82.70;;;;;;5083600;28;20485;-73
2022/07/15 12:39:15;;;;;;;1.95;1.00;;;26.10;82.40;;;;;;5085230;28;20540;-73
2022/07/15 12:41:43;;;;;;;3.10;0.70;;;26.10;82.10;;;;;;5083083;28;20031;-74
2022/07/15 12:44:10;;;;;;;4.13;0.75;;;26.00;82.10;;;;;;5086030;28;20033;-70
2022/07/15 12:47:20;;;;;;;4.00;0.63;;;26.30;86.20;;;;;;5090402;28;20519;-74
2022/07/15 12:49:51;;;;;;;2.70;0.70;;;26.50;84.10;;;;;;5068235;28;20040;-75
2022/07/15 12:52:17;;;;;;;4.03;0.77;;;27.00;80.80;;;;;;5087649;28;20089;-73
2022/07/15 12:54:43;;;;;;;1.52;0.70;;;27.20;82.90;;;;;;5074517;28;20453;-72
2022/07/15 12:57:29;;;;;;;3.58;0.73;;;27.00;80.30;;;;;;5083448;28;20115;-73
2022/07/15 13:00:17;;;;;;;1.83;0.70;;;26.70;80.20;;;;;;5079747;28;20469;-75
2022/07/15 13:03:08;;;;;;;2.42;1.15;;;26.50;81.20;;;;;;5082648;28;20025;-74